sensor_id;sensor_type;location;lat;lon;timestamp;pressure;altitude;pressure_sealevel;temperature;humidity
2681;BME280;1350;42.134;24.708;2023-07-28T00:00:43;99351.84;;;20.21;56.24
2681;BME280;1350;42.134;24.708;2023-07-28T00:03:10;99354.53;;;20.21;56.22
2681;BME280;1350;42.134;24.708;2023-07-28T00:05:37;99357.81;;;20.25;56.07
2681;BME280;1350;42.134;24.708;2023-07-28T00:08:04;99352.97;;;20.09;56.26
2681;BME280;1350;42.134;24.708;2023-07-28T00:10:30;99348.59;;;20.08;56.53
2681;BME280;1350;42.134;24.708;2023-07-28T00:12:58;99353.31;;;19.87;56.91
2681;BME280;1350;42.134;24.708;2023-07-28T00:15:26;99355.69;;;19.90;57.05
2681;BME280;1350;42.134;24.708;2023-07-28T00:17:54;99360.56;;;19.86;57.27
2681;BME280;1350;42.134;24.708;2023-07-28T00:20:21;99361.09;;;19.90;57.11
2681;BME280;1350;42.134;24.708;2023-07-28T00:22:48;99364.78;;;19.89;57.27
2681;BME280;1350;42.134;24.708;2023-07-28T00:25:14;99361.25;;;19.79;57.21
2681;BME280;1350;42.134;24.708;2023-07-28T00:27:41;99356.56;;;19.71;57.68
2681;BME280;1350;42.134;24.708;2023-07-28T00:30:10;99353.19;;;19.69;57.81
2681;BME280;1350;42.134;24.708;2023-07-28T00:32:37;99352.63;;;19.66;58.33
2681;BME280;1350;42.134;24.708;2023-07-28T00:35:06;99347.81;;;19.60;58.93
2681;BME280;1350;42.134;24.708;2023-07-28T00:37:33;99351.63;;;19.57;59.05
2681;BME280;1350;42.134;24.708;2023-07-28T00:40:00;99348.94;;;19.57;59.14
2681;BME280;1350;42.134;24.708;2023-07-28T00:42:27;99351.94;;;19.45;59.61
2681;BME280;1350;42.134;24.708;2023-07-28T00:44:53;99351.78;;;19.46;59.58
2681;BME280;1350;42.134;24.708;2023-07-28T00:47:20;99353.91;;;19.43;60.23
2681;BME280;1350;42.134;24.708;2023-07-28T00:49:47;99346.53;;;19.35;60.52
2681;BME280;1350;42.134;24.708;2023-07-28T00:52:16;99351.03;;;19.25;60.91
2681;BME280;1350;42.134;24.708;2023-07-28T00:54:42;99348.34;;;19.16;61.74
2681;BME280;1350;42.134;24.708;2023-07-28T00:57:10;99356.66;;;19.13;61.44
2681;BME280;1350;42.134;24.708;2023-07-28T00:59:36;99356.94;;;19.10;61.97
2681;BME280;1350;42.134;24.708;2023-07-28T01:02:03;99348.19;;;19.08;62.59
2681;BME280;1350;42.134;24.708;2023-07-28T01:04:30;99348.75;;;19.02;62.90
2681;BME280;1350;42.134;24.708;2023-07-28T01:07:02;99350.28;;;19.04;63.06
2681;BME280;1350;42.134;24.708;2023-07-28T01:09:42;99351.69;;;19.08;63.22
2681;BME280;1350;42.134;24.708;2023-07-28T01:12:11;99346.63;;;18.96;63.89
2681;BME280;1350;42.134;24.708;2023-07-28T01:14:38;99338.00;;;19.02;63.98
2681;BME280;1350;42.134;24.708;2023-07-28T01:17:05;99345.72;;;18.86;64.79
2681;BME280;1350;42.134;24.708;2023-07-28T01:19:32;99344.59;;;18.79;65.51
2681;BME280;1350;42.134;24.708;2023-07-28T01:22:10;99339.19;;;18.69;65.77
2681;BME280;1350;42.134;24.708;2023-07-28T01:24:51;99342.25;;;18.55;66.97
2681;BME280;1350;42.134;24.708;2023-07-28T01:27:20;99345.88;;;18.44;67.78
2681;BME280;1350;42.134;24.708;2023-07-28T01:29:47;99347.28;;;18.48;67.88
2681;BME280;1350;42.134;24.708;2023-07-28T01:32:14;99344.28;;;18.42;68.53
2681;BME280;1350;42.134;24.708;2023-07-28T01:34:41;99342.78;;;18.49;68.72
2681;BME280;1350;42.134;24.708;2023-07-28T01:37:08;99340.56;;;18.54;69.10
2681;BME280;1350;42.134;24.708;2023-07-28T01:39:34;99345.66;;;18.57;69.46
2681;BME280;1350;42.134;24.708;2023-07-28T01:42:01;99346.84;;;18.43;69.97
2681;BME280;1350;42.134;24.708;2023-07-28T01:44:29;99337.59;;;18.36;70.54
2681;BME280;1350;42.134;24.708;2023-07-28T01:46:56;99337.16;;;18.31;70.99
2681;BME280;1350;42.134;24.708;2023-07-28T01:49:22;99346.19;;;18.30;70.99
2681;BME280;1350;42.134;24.708;2023-07-28T01:51:49;99347.59;;;18.25;71.65
2681;BME280;1350;42.134;24.708;2023-07-28T01:54:16;99346.81;;;18.13;71.87
2681;BME280;1350;42.134;24.708;2023-07-28T01:56:43;99351.06;;;18.16;72.28
2681;BME280;1350;42.134;24.708;2023-07-28T01:59:09;99344.41;;;18.10;72.19
2681;BME280;1350;42.134;24.708;2023-07-28T02:01:38;99355.06;;;18.01;72.91
2681;BME280;1350;42.134;24.708;2023-07-28T02:04:04;99358.56;;;17.92;73.30
2681;BME280;1350;42.134;24.708;2023-07-28T02:06:31;99361.16;;;17.82;73.88
2681;BME280;1350;42.134;24.708;2023-07-28T02:08:58;99358.63;;;17.81;74.31
2681;BME280;1350;42.134;24.708;2023-07-28T02:11:25;99366.72;;;17.70;74.53
2681;BME280;1350;42.134;24.708;2023-07-28T02:13:51;99356.59;;;17.73;74.21
2681;BME280;1350;42.134;24.708;2023-07-28T02:16:18;99361.56;;;17.78;74.57
2681;BME280;1350;42.134;24.708;2023-07-28T02:18:46;99355.94;;;17.81;74.68
2681;BME280;1350;42.134;24.708;2023-07-28T02:21:13;99363.03;;;17.82;75.01
2681;BME280;1350;42.134;24.708;2023-07-28T02:23:40;99364.97;;;17.80;75.54
2681;BME280;1350;42.134;24.708;2023-07-28T02:26:06;99363.19;;;17.90;75.92
2681;BME280;1350;42.134;24.708;2023-07-28T02:28:33;99369.22;;;17.82;76.76
2681;BME280;1350;42.134;24.708;2023-07-28T02:31:00;99359.69;;;17.89;76.36
2681;BME280;1350;42.134;24.708;2023-07-28T02:33:27;99362.69;;;17.75;77.22
2681;BME280;1350;42.134;24.708;2023-07-28T02:35:56;99366.47;;;17.93;76.98
2681;BME280;1350;42.134;24.708;2023-07-28T02:38:22;99363.25;;;17.99;77.30
2681;BME280;1350;42.134;24.708;2023-07-28T02:40:49;99360.84;;;17.96;77.23
2681;BME280;1350;42.134;24.708;2023-07-28T02:43:16;99360.97;;;17.95;77.03
2681;BME280;1350;42.134;24.708;2023-07-28T02:45:42;99365.81;;;18.01;77.14
2681;BME280;1350;42.134;24.708;2023-07-28T02:48:08;99362.44;;;17.99;77.27
2681;BME280;1350;42.134;24.708;2023-07-28T02:50:35;99365.75;;;18.12;77.41
2681;BME280;1350;42.134;24.708;2023-07-28T02:53:03;99354.75;;;18.15;77.25
2681;BME280;1350;42.134;24.708;2023-07-28T02:55:30;99357.09;;;18.08;77.69
2681;BME280;1350;42.134;24.708;2023-07-28T02:57:57;99358.09;;;18.07;77.72
2681;BME280;1350;42.134;24.708;2023-07-28T03:00:24;99365.88;;;17.90;78.02
2681;BME280;1350;42.134;24.708;2023-07-28T03:02:50;99362.94;;;17.93;77.69
2681;BME280;1350;42.134;24.708;2023-07-28T03:05:17;99365.72;;;17.82;77.99
2681;BME280;1350;42.134;24.708;2023-07-28T03:07:47;99367.06;;;17.97;77.20
2681;BME280;1350;42.134;24.708;2023-07-28T03:10:15;99371.19;;;18.01;78.05
2681;BME280;1350;42.134;24.708;2023-07-28T03:12:42;99368.56;;;18.10;77.52
2681;BME280;1350;42.134;24.708;2023-07-28T03:15:09;99375.19;;;18.06;77.26
2681;BME280;1350;42.134;24.708;2023-07-28T03:17:36;99374.78;;;17.90;78.68
2681;BME280;1350;42.134;24.708;2023-07-28T03:20:03;99374.00;;;18.20;86.09
2681;BME280;1350;42.134;24.708;2023-07-28T03:22:30;99381.50;;;18.05;84.06
2681;BME280;1350;42.134;24.708;2023-07-28T03:24:57;99376.22;;;18.15;83.69
2681;BME280;1350;42.134;24.708;2023-07-28T03:27:25;99383.19;;;18.27;82.74
2681;BME280;1350;42.134;24.708;2023-07-28T03:29:52;99381.44;;;18.37;81.52
2681;BME280;1350;42.134;24.708;2023-07-28T03:32:18;99382.06;;;18.50;80.22
2681;BME280;1350;42.134;24.708;2023-07-28T03:34:45;99389.50;;;18.67;78.55
2681;BME280;1350;42.134;24.708;2023-07-28T03:37:12;99379.50;;;18.79;79.31
2681;BME280;1350;42.134;24.708;2023-07-28T03:39:39;99398.88;;;18.82;76.67
2681;BME280;1350;42.134;24.708;2023-07-28T03:42:06;99397.41;;;18.99;74.78
2681;BME280;1350;42.134;24.708;2023-07-28T03:44:35;99399.41;;;19.16;72.91
2681;BME280;1350;42.134;24.708;2023-07-28T03:47:03;99401.84;;;19.28;71.69
2681;BME280;1350;42.134;24.708;2023-07-28T03:49:30;99404.94;;;19.24;71.45
2681;BME280;1350;42.134;24.708;2023-07-28T03:51:56;99417.16;;;19.47;70.35
2681;BME280;1350;42.134;24.708;2023-07-28T03:54:23;99410.66;;;19.40;73.86
2681;BME280;1350;42.134;24.708;2023-07-28T03:56:50;99421.84;;;19.54;73.98
2681;BME280;1350;42.134;24.708;2023-07-28T03:59:17;99415.78;;;19.52;76.14
2681;BME280;1350;42.134;24.708;2023-07-28T04:01:45;99418.03;;;19.76;74.22
2681;BME280;1350;42.134;24.708;2023-07-28T04:04:13;99416.06;;;19.87;76.99
2681;BME280;1350;42.134;24.708;2023-07-28T04:06:40;99427.81;;;20.15;75.04
2681;BME280;1350;42.134;24.708;2023-07-28T04:09:08;99430.06;;;20.39;71.52
2681;BME280;1350;42.134;24.708;2023-07-28T04:11:35;99428.31;;;20.47;71.08
2681;BME280;1350;42.134;24.708;2023-07-28T04:14:01;99425.31;;;20.60;69.01
2681;BME280;1350;42.134;24.708;2023-07-28T04:16:28;99432.81;;;20.66;67.16
2681;BME280;1350;42.134;24.708;2023-07-28T04:18:57;99438.59;;;20.80;67.03
2681;BME280;1350;42.134;24.708;2023-07-28T04:21:24;99435.53;;;20.93;66.62
2681;BME280;1350;42.134;24.708;2023-07-28T04:23:50;99438.00;;;20.77;67.09
2681;BME280;1350;42.134;24.708;2023-07-28T04:26:17;99435.91;;;21.07;64.29
2681;BME280;1350;42.134;24.708;2023-07-28T04:28:44;99441.56;;;21.58;62.79
2681;BME280;1350;42.134;24.708;2023-07-28T04:31:11;99433.66;;;21.92;60.58
2681;BME280;1350;42.134;24.708;2023-07-28T04:33:40;99434.63;;;22.26;59.57
2681;BME280;1350;42.134;24.708;2023-07-28T04:36:09;99432.09;;;22.50;58.00
2681;BME280;1350;42.134;24.708;2023-07-28T04:38:36;99439.34;;;22.50;57.42
2681;BME280;1350;42.134;24.708;2023-07-28T04:41:03;99442.50;;;22.88;57.52
2681;BME280;1350;42.134;24.708;2023-07-28T04:43:30;99444.75;;;23.01;55.26
2681;BME280;1350;42.134;24.708;2023-07-28T04:45:56;99435.94;;;23.24;55.48
2681;BME280;1350;42.134;24.708;2023-07-28T04:48:23;99435.66;;;23.44;54.88
2681;BME280;1350;42.134;24.708;2023-07-28T04:50:50;99434.91;;;23.25;54.18
2681;BME280;1350;42.134;24.708;2023-07-28T04:53:18;99439.91;;;23.46;53.59
2681;BME280;1350;42.134;24.708;2023-07-28T04:55:45;99438.66;;;23.24;54.11
2681;BME280;1350;42.134;24.708;2023-07-28T04:58:11;99438.09;;;23.21;53.33
2681;BME280;1350;42.134;24.708;2023-07-28T05:00:38;99446.06;;;23.72;52.90
2681;BME280;1350;42.134;24.708;2023-07-28T05:03:05;99445.63;;;24.09;51.87
2681;BME280;1350;42.134;24.708;2023-07-28T05:05:31;99449.50;;;24.78;51.26
2681;BME280;1350;42.134;24.708;2023-07-28T05:07:58;99459.81;;;25.38;49.45
2681;BME280;1350;42.134;24.708;2023-07-28T05:10:26;99455.25;;;25.91;48.30
2681;BME280;1350;42.134;24.708;2023-07-28T05:12:53;99451.75;;;26.28;46.74
2681;BME280;1350;42.134;24.708;2023-07-28T05:15:20;99464.44;;;26.58;45.72
2681;BME280;1350;42.134;24.708;2023-07-28T05:17:46;99450.91;;;26.87;44.94
2681;BME280;1350;42.134;24.708;2023-07-28T05:20:13;99464.13;;;27.19;44.48
2681;BME280;1350;42.134;24.708;2023-07-28T05:22:41;99462.47;;;27.33;44.09
2681;BME280;1350;42.134;24.708;2023-07-28T05:25:08;99465.72;;;27.57;42.93
2681;BME280;1350;42.134;24.708;2023-07-28T05:27:36;99468.66;;;27.91;42.52
2681;BME280;1350;42.134;24.708;2023-07-28T05:30:03;99464.06;;;28.13;42.44
2681;BME280;1350;42.134;24.708;2023-07-28T05:32:31;99469.13;;;28.37;41.55
2681;BME280;1350;42.134;24.708;2023-07-28T05:34:58;99461.97;;;28.57;41.29
2681;BME280;1350;42.134;24.708;2023-07-28T05:37:24;99461.78;;;28.59;41.16
2681;BME280;1350;42.134;24.708;2023-07-28T05:39:51;99461.91;;;28.72;41.05
2681;BME280;1350;42.134;24.708;2023-07-28T05:42:18;99468.63;;;28.48;41.21
2681;BME280;1350;42.134;24.708;2023-07-28T05:44:46;99469.94;;;28.52;41.28
2681;BME280;1350;42.134;24.708;2023-07-28T05:47:13;99466.16;;;28.81;40.28
2681;BME280;1350;42.134;24.708;2023-07-28T05:49:39;99465.50;;;28.79;40.49
2681;BME280;1350;42.134;24.708;2023-07-28T05:52:07;99461.66;;;29.28;39.46
2681;BME280;1350;42.134;24.708;2023-07-28T05:54:33;99464.44;;;29.69;39.20
2681;BME280;1350;42.134;24.708;2023-07-28T05:57:00;99474.22;;;30.04;38.60
2681;BME280;1350;42.134;24.708;2023-07-28T05:59:27;99471.75;;;30.22;37.89
2681;BME280;1350;42.134;24.708;2023-07-28T06:01:56;99470.72;;;30.36;37.27
2681;BME280;1350;42.134;24.708;2023-07-28T06:04:23;99465.00;;;30.51;37.14
2681;BME280;1350;42.134;24.708;2023-07-28T06:06:49;99467.56;;;30.39;37.25
2681;BME280;1350;42.134;24.708;2023-07-28T06:09:17;99466.47;;;30.34;36.67
2681;BME280;1350;42.134;24.708;2023-07-28T06:11:44;99465.13;;;29.91;37.43
2681;BME280;1350;42.134;24.708;2023-07-28T06:14:11;99462.81;;;30.01;37.05
2681;BME280;1350;42.134;24.708;2023-07-28T06:16:37;99473.63;;;30.22;37.29
2681;BME280;1350;42.134;24.708;2023-07-28T06:19:06;99470.31;;;30.78;37.66
2681;BME280;1350;42.134;24.708;2023-07-28T06:21:33;99482.94;;;31.05;36.15
2681;BME280;1350;42.134;24.708;2023-07-28T06:24:00;99475.56;;;30.99;37.01
2681;BME280;1350;42.134;24.708;2023-07-28T06:26:27;99476.44;;;30.80;36.21
2681;BME280;1350;42.134;24.708;2023-07-28T06:28:53;99463.53;;;30.74;35.75
2681;BME280;1350;42.134;24.708;2023-07-28T06:31:20;99458.72;;;30.70;35.88
2681;BME280;1350;42.134;24.708;2023-07-28T06:33:47;99449.63;;;30.95;35.59
2681;BME280;1350;42.134;24.708;2023-07-28T06:36:15;99451.53;;;31.01;34.84
2681;BME280;1350;42.134;24.708;2023-07-28T06:38:43;99453.03;;;30.58;36.53
2681;BME280;1350;42.134;24.708;2023-07-28T06:41:13;99443.56;;;30.93;36.26
2681;BME280;1350;42.134;24.708;2023-07-28T06:43:40;99444.09;;;31.35;35.59
2681;BME280;1350;42.134;24.708;2023-07-28T06:46:07;99446.59;;;31.93;34.96
2681;BME280;1350;42.134;24.708;2023-07-28T06:48:33;99437.38;;;32.50;34.34
2681;BME280;1350;42.134;24.708;2023-07-28T06:51:00;99433.53;;;32.51;33.97
2681;BME280;1350;42.134;24.708;2023-07-28T06:53:28;99440.63;;;32.34;33.63
2681;BME280;1350;42.134;24.708;2023-07-28T06:55:55;99438.81;;;31.27;34.41
2681;BME280;1350;42.134;24.708;2023-07-28T06:58:21;99429.84;;;30.61;36.04
2681;BME280;1350;42.134;24.708;2023-07-28T07:00:48;99447.25;;;30.08;36.00
2681;BME280;1350;42.134;24.708;2023-07-28T07:03:15;99438.16;;;29.88;36.12
2681;BME280;1350;42.134;24.708;2023-07-28T07:05:42;99435.31;;;30.22;36.11
2681;BME280;1350;42.134;24.708;2023-07-28T07:08:09;99434.91;;;30.64;36.43
2681;BME280;1350;42.134;24.708;2023-07-28T07:10:39;99430.28;;;30.64;35.74
2681;BME280;1350;42.134;24.708;2023-07-28T07:13:05;99432.78;;;29.60;37.04
2681;BME280;1350;42.134;24.708;2023-07-28T07:15:34;99432.91;;;29.86;37.78
2681;BME280;1350;42.134;24.708;2023-07-28T07:18:01;99432.50;;;29.89;37.64
2681;BME280;1350;42.134;24.708;2023-07-28T07:20:28;99425.22;;;30.22;36.13
2681;BME280;1350;42.134;24.708;2023-07-28T07:22:54;99424.38;;;30.87;36.26
2681;BME280;1350;42.134;24.708;2023-07-28T07:25:21;99431.53;;;30.62;35.04
2681;BME280;1350;42.134;24.708;2023-07-28T07:27:49;99427.28;;;30.14;35.24
2681;BME280;1350;42.134;24.708;2023-07-28T07:30:17;99425.81;;;30.18;35.08
2681;BME280;1350;42.134;24.708;2023-07-28T07:32:43;99426.69;;;30.31;34.50
2681;BME280;1350;42.134;24.708;2023-07-28T07:35:10;99431.31;;;30.96;33.67
2681;BME280;1350;42.134;24.708;2023-07-28T07:37:40;99423.84;;;31.36;32.90
2681;BME280;1350;42.134;24.708;2023-07-28T07:40:07;99429.22;;;31.62;33.54
2681;BME280;1350;42.134;24.708;2023-07-28T07:42:41;99427.88;;;32.15;31.17
2681;BME280;1350;42.134;24.708;2023-07-28T07:45:11;99424.81;;;32.29;31.88
2681;BME280;1350;42.134;24.708;2023-07-28T07:47:38;99424.84;;;32.54;31.72
2681;BME280;1350;42.134;24.708;2023-07-28T07:50:06;99421.09;;;32.48;30.76
2681;BME280;1350;42.134;24.708;2023-07-28T07:52:34;99423.13;;;32.28;31.50
2681;BME280;1350;42.134;24.708;2023-07-28T07:55:01;99419.47;;;32.41;31.18
2681;BME280;1350;42.134;24.708;2023-07-28T07:57:28;99416.50;;;32.11;31.22
2681;BME280;1350;42.134;24.708;2023-07-28T07:59:55;99425.19;;;32.08;30.73
2681;BME280;1350;42.134;24.708;2023-07-28T08:02:23;99417.28;;;32.18;30.31
2681;BME280;1350;42.134;24.708;2023-07-28T08:04:51;99419.88;;;32.94;30.59
2681;BME280;1350;42.134;24.708;2023-07-28T08:07:18;99418.72;;;33.37;29.29
2681;BME280;1350;42.134;24.708;2023-07-28T08:09:45;99415.94;;;33.44;29.29
2681;BME280;1350;42.134;24.708;2023-07-28T08:12:13;99415.38;;;33.53;29.45
2681;BME280;1350;42.134;24.708;2023-07-28T08:14:41;99408.75;;;33.43;29.61
2681;BME280;1350;42.134;24.708;2023-07-28T08:17:09;99412.09;;;33.45;29.53
2681;BME280;1350;42.134;24.708;2023-07-28T08:19:37;99400.44;;;32.46;30.14
2681;BME280;1350;42.134;24.708;2023-07-28T08:22:04;99399.81;;;32.44;30.67
2681;BME280;1350;42.134;24.708;2023-07-28T08:24:31;99394.31;;;31.44;30.39
2681;BME280;1350;42.134;24.708;2023-07-28T08:26:58;99401.78;;;32.06;30.12
2681;BME280;1350;42.134;24.708;2023-07-28T08:29:25;99396.13;;;32.25;30.16
2681;BME280;1350;42.134;24.708;2023-07-28T08:31:52;99391.75;;;31.87;29.87
2681;BME280;1350;42.134;24.708;2023-07-28T08:34:18;99391.63;;;32.06;30.30
2681;BME280;1350;42.134;24.708;2023-07-28T08:36:47;99386.97;;;32.38;29.79
2681;BME280;1350;42.134;24.708;2023-07-28T08:39:17;99383.63;;;31.67;30.06
2681;BME280;1350;42.134;24.708;2023-07-28T08:41:43;99387.13;;;31.81;30.02
2681;BME280;1350;42.134;24.708;2023-07-28T08:44:10;99376.19;;;32.12;30.12
2681;BME280;1350;42.134;24.708;2023-07-28T08:46:38;99376.25;;;32.54;29.34
2681;BME280;1350;42.134;24.708;2023-07-28T08:49:05;99381.69;;;33.22;29.08
2681;BME280;1350;42.134;24.708;2023-07-28T08:51:32;99373.75;;;33.32;29.01
2681;BME280;1350;42.134;24.708;2023-07-28T08:54:00;99376.19;;;33.22;28.41
2681;BME280;1350;42.134;24.708;2023-07-28T08:56:27;99374.06;;;33.42;27.41
2681;BME280;1350;42.134;24.708;2023-07-28T08:58:58;99375.81;;;33.84;27.28
2681;BME280;1350;42.134;24.708;2023-07-28T09:01:25;99371.09;;;34.02;27.09
2681;BME280;1350;42.134;24.708;2023-07-28T09:03:52;99366.53;;;33.96;27.15
2681;BME280;1350;42.134;24.708;2023-07-28T09:06:28;99358.63;;;33.88;26.12
2681;BME280;1350;42.134;24.708;2023-07-28T09:08:56;99354.09;;;33.46;27.78
2681;BME280;1350;42.134;24.708;2023-07-28T09:11:24;99355.66;;;33.24;27.72
2681;BME280;1350;42.134;24.708;2023-07-28T09:13:54;99349.94;;;32.65;27.51
2681;BME280;1350;42.134;24.708;2023-07-28T09:16:21;99342.09;;;32.87;28.09
2681;BME280;1350;42.134;24.708;2023-07-28T09:18:50;99340.63;;;33.09;28.47
2681;BME280;1350;42.134;24.708;2023-07-28T09:21:17;99343.88;;;33.17;27.26
2681;BME280;1350;42.134;24.708;2023-07-28T09:23:46;99346.16;;;33.20;27.38
2681;BME280;1350;42.134;24.708;2023-07-28T09:26:14;99348.19;;;32.95;27.06
2681;BME280;1350;42.134;24.708;2023-07-28T09:28:42;99342.78;;;32.82;27.18
2681;BME280;1350;42.134;24.708;2023-07-28T09:31:13;99343.09;;;32.74;27.01
2681;BME280;1350;42.134;24.708;2023-07-28T09:33:39;99333.66;;;33.24;27.06
2681;BME280;1350;42.134;24.708;2023-07-28T09:36:13;99340.66;;;33.68;26.82
2681;BME280;1350;42.134;24.708;2023-07-28T09:38:41;99332.50;;;33.61;27.15
2681;BME280;1350;42.134;24.708;2023-07-28T09:41:09;99325.34;;;33.90;26.52
2681;BME280;1350;42.134;24.708;2023-07-28T09:43:37;99325.88;;;33.39;26.76
2681;BME280;1350;42.134;24.708;2023-07-28T09:46:06;99318.16;;;33.59;26.78
2681;BME280;1350;42.134;24.708;2023-07-28T09:48:33;99323.19;;;33.62;26.93
2681;BME280;1350;42.134;24.708;2023-07-28T09:51:05;99307.00;;;33.84;26.72
2681;BME280;1350;42.134;24.708;2023-07-28T09:53:36;99308.44;;;33.86;26.90
2681;BME280;1350;42.134;24.708;2023-07-28T09:56:06;99304.06;;;34.20;26.72
2681;BME280;1350;42.134;24.708;2023-07-28T09:58:37;99305.50;;;33.99;26.27
2681;BME280;1350;42.134;24.708;2023-07-28T10:01:07;99301.44;;;34.02;26.48
2681;BME280;1350;42.134;24.708;2023-07-28T10:03:34;99294.59;;;33.93;26.92
2681;BME280;1350;42.134;24.708;2023-07-28T10:06:01;99291.47;;;33.60;27.55
2681;BME280;1350;42.134;24.708;2023-07-28T10:08:28;99285.50;;;33.33;26.85
2681;BME280;1350;42.134;24.708;2023-07-28T10:10:55;99279.13;;;32.85;26.92
2681;BME280;1350;42.134;24.708;2023-07-28T10:13:22;99280.59;;;33.35;27.03
2681;BME280;1350;42.134;24.708;2023-07-28T10:15:52;99277.16;;;33.10;27.68
2681;BME280;1350;42.134;24.708;2023-07-28T10:18:21;99276.03;;;33.29;27.78
2681;BME280;1350;42.134;24.708;2023-07-28T10:20:48;99273.91;;;33.61;26.82
2681;BME280;1350;42.134;24.708;2023-07-28T10:23:17;99262.44;;;33.64;26.95
2681;BME280;1350;42.134;24.708;2023-07-28T10:25:55;99268.41;;;33.72;25.75
2681;BME280;1350;42.134;24.708;2023-07-28T10:28:27;99258.75;;;33.70;25.60
2681;BME280;1350;42.134;24.708;2023-07-28T10:30:57;99258.66;;;33.88;25.04
2681;BME280;1350;42.134;24.708;2023-07-28T10:33:30;99251.03;;;34.01;25.06
2681;BME280;1350;42.134;24.708;2023-07-28T10:35:58;99244.16;;;33.81;25.56
2681;BME280;1350;42.134;24.708;2023-07-28T10:38:32;99238.84;;;33.56;26.30
2681;BME280;1350;42.134;24.708;2023-07-28T10:41:06;99249.72;;;33.92;25.72
2681;BME280;1350;42.134;24.708;2023-07-28T10:43:34;99240.19;;;33.36;26.74
2681;BME280;1350;42.134;24.708;2023-07-28T10:46:00;99228.19;;;33.48;26.72
2681;BME280;1350;42.134;24.708;2023-07-28T10:48:27;99229.53;;;33.57;26.13
2681;BME280;1350;42.134;24.708;2023-07-28T10:50:55;99227.06;;;33.38;26.16
2681;BME280;1350;42.134;24.708;2023-07-28T10:53:22;99231.69;;;33.26;26.16
2681;BME280;1350;42.134;24.708;2023-07-28T10:55:49;99225.19;;;32.54;26.39
2681;BME280;1350;42.134;24.708;2023-07-28T10:58:16;99225.03;;;32.49;26.90
2681;BME280;1350;42.134;24.708;2023-07-28T11:00:43;99221.16;;;32.93;26.83
2681;BME280;1350;42.134;24.708;2023-07-28T11:03:10;99219.00;;;32.59;26.65
2681;BME280;1350;42.134;24.708;2023-07-28T11:05:37;99210.94;;;32.46;26.63
2681;BME280;1350;42.134;24.708;2023-07-28T11:08:06;99212.69;;;31.73;26.96
2681;BME280;1350;42.134;24.708;2023-07-28T11:10:34;99216.31;;;31.67;26.48
2681;BME280;1350;42.134;24.708;2023-07-28T11:13:02;99219.19;;;32.03;26.98
2681;BME280;1350;42.134;24.708;2023-07-28T11:15:30;99212.22;;;32.43;26.23
2681;BME280;1350;42.134;24.708;2023-07-28T11:17:59;99206.19;;;32.35;26.38
2681;BME280;1350;42.134;24.708;2023-07-28T11:20:27;99208.34;;;32.51;26.02
2681;BME280;1350;42.134;24.708;2023-07-28T11:22:56;99203.34;;;32.96;25.88
2681;BME280;1350;42.134;24.708;2023-07-28T11:25:25;99201.59;;;33.01;25.88
2681;BME280;1350;42.134;24.708;2023-07-28T11:27:53;99203.34;;;33.25;25.68
2681;BME280;1350;42.134;24.708;2023-07-28T11:30:21;99203.59;;;33.35;25.36
2681;BME280;1350;42.134;24.708;2023-07-28T11:32:49;99192.66;;;33.06;25.82
2681;BME280;1350;42.134;24.708;2023-07-28T11:35:18;99186.47;;;33.22;26.01
2681;BME280;1350;42.134;24.708;2023-07-28T11:37:46;99181.34;;;33.25;25.82
2681;BME280;1350;42.134;24.708;2023-07-28T11:40:17;99191.38;;;33.20;25.69
2681;BME280;1350;42.134;24.708;2023-07-28T11:42:48;99177.97;;;33.23;25.76
2681;BME280;1350;42.134;24.708;2023-07-28T11:45:17;99175.59;;;33.56;25.69
2681;BME280;1350;42.134;24.708;2023-07-28T11:47:54;99166.50;;;33.15;26.00
2681;BME280;1350;42.134;24.708;2023-07-28T11:50:26;99164.38;;;32.87;26.68
2681;BME280;1350;42.134;24.708;2023-07-28T11:52:53;99161.63;;;32.33;26.23
2681;BME280;1350;42.134;24.708;2023-07-28T11:55:20;99156.72;;;31.56;27.02
2681;BME280;1350;42.134;24.708;2023-07-28T11:57:49;99153.16;;;31.74;27.16
2681;BME280;1350;42.134;24.708;2023-07-28T12:00:16;99157.94;;;32.45;26.64
2681;BME280;1350;42.134;24.708;2023-07-28T12:02:44;99148.50;;;32.71;26.42
2681;BME280;1350;42.134;24.708;2023-07-28T12:05:15;99148.63;;;32.94;26.83
2681;BME280;1350;42.134;24.708;2023-07-28T12:07:47;99141.16;;;33.13;26.68
2681;BME280;1350;42.134;24.708;2023-07-28T12:10:14;99145.31;;;32.56;26.79
2681;BME280;1350;42.134;24.708;2023-07-28T12:12:44;99128.22;;;32.54;26.67
2681;BME280;1350;42.134;24.708;2023-07-28T12:15:24;99124.09;;;32.63;26.44
2681;BME280;1350;42.134;24.708;2023-07-28T12:18:04;99122.97;;;32.52;26.83
2681;BME280;1350;42.134;24.708;2023-07-28T12:20:35;99124.25;;;32.98;26.34
2681;BME280;1350;42.134;24.708;2023-07-28T12:23:03;99124.75;;;33.06;26.47
2681;BME280;1350;42.134;24.708;2023-07-28T12:25:30;99115.69;;;33.06;26.13
2681;BME280;1350;42.134;24.708;2023-07-28T12:27:57;99115.50;;;32.89;26.14
2681;BME280;1350;42.134;24.708;2023-07-28T12:30:25;99109.75;;;32.91;26.15
2681;BME280;1350;42.134;24.708;2023-07-28T12:32:52;99110.13;;;32.94;26.40
2681;BME280;1350;42.134;24.708;2023-07-28T12:35:19;99105.41;;;33.01;26.11
2681;BME280;1350;42.134;24.708;2023-07-28T12:37:47;99094.06;;;32.80;26.50
2681;BME280;1350;42.134;24.708;2023-07-28T12:40:13;99088.19;;;32.46;26.88
2681;BME280;1350;42.134;24.708;2023-07-28T12:42:40;99092.59;;;32.65;27.62
2681;BME280;1350;42.134;24.708;2023-07-28T12:45:07;99090.94;;;31.92;27.31
2681;BME280;1350;42.134;24.708;2023-07-28T12:47:35;99091.59;;;31.70;27.03
2681;BME280;1350;42.134;24.708;2023-07-28T12:50:03;99093.81;;;31.12;27.75
2681;BME280;1350;42.134;24.708;2023-07-28T12:52:31;99089.94;;;31.20;27.13
2681;BME280;1350;42.134;24.708;2023-07-28T12:54:58;99080.69;;;31.63;28.33
2681;BME280;1350;42.134;24.708;2023-07-28T12:57:25;99084.50;;;32.23;27.40
2681;BME280;1350;42.134;24.708;2023-07-28T12:59:51;99081.13;;;32.68;26.59
2681;BME280;1350;42.134;24.708;2023-07-28T13:02:18;99069.16;;;32.15;27.02
2681;BME280;1350;42.134;24.708;2023-07-28T13:04:46;99068.38;;;32.26;26.99
2681;BME280;1350;42.134;24.708;2023-07-28T13:07:13;99068.88;;;32.53;27.05
2681;BME280;1350;42.134;24.708;2023-07-28T13:09:40;99062.94;;;32.97;26.54
2681;BME280;1350;42.134;24.708;2023-07-28T13:12:08;99055.34;;;33.34;26.45